createdAt,value
2023-02-25T00:01:37.770Z,157359.94
2023-02-25T00:04:05.200Z,157350.66
2023-02-25T00:06:32.667Z,157351.97
2023-02-25T00:08:59.948Z,157358.63
2023-02-25T00:11:28.305Z,157362.56
2023-02-25T00:13:55.556Z,157358.63
2023-02-25T00:16:24.334Z,157369.19
2023-02-25T00:18:58.543Z,157378.53
2023-02-25T00:21:26.330Z,157383.78
2023-02-25T00:23:53.746Z,157389.13
2023-02-25T00:26:21.881Z,157395.75
2023-02-25T00:28:49.737Z,157401.09
2023-02-25T00:31:20.394Z,157394.44
2023-02-25T00:33:48.417Z,157394.44
2023-02-25T00:36:21.995Z,157393.13
2023-02-25T00:38:51.180Z,157385.13
2023-02-25T00:41:21.430Z,157371.88
2023-02-25T00:43:51.392Z,157371.88
2023-02-25T00:46:19.680Z,157370.53
2023-02-25T00:48:47.491Z,157375.84
2023-02-25T00:51:20.751Z,157382.47
2023-02-25T00:53:47.766Z,157387.81
2023-02-25T00:56:16.955Z,157389.13
2023-02-25T00:58:45.126Z,157402.41
2023-02-25T01:01:24.737Z,157390.44
2023-02-25T01:03:54.034Z,157387.81
2023-02-25T01:06:22.024Z,157393.13
2023-02-25T01:08:50.234Z,157394.44
2023-02-25T01:11:27.884Z,157386.47
2023-02-25T01:13:59.932Z,157386.47
2023-02-25T01:16:31.549Z,157385.13
2023-02-25T01:19:00.615Z,157379.84
2023-02-25T01:21:41.178Z,157373.22
2023-02-25T01:24:12.770Z,157361.25
2023-02-25T01:26:44.641Z,157362.56
2023-02-25T01:29:21.037Z,157359.94
2023-02-25T01:31:48.754Z,157351.97
2023-02-25T01:34:17.580Z,157340.00
2023-02-25T01:36:45.533Z,157330.75
2023-02-25T01:39:14.666Z,157337.38
2023-02-25T01:41:42.588Z,157322.78
2023-02-25T01:44:11.882Z,157330.75
2023-02-25T01:46:41.280Z,157310.81
2023-02-25T01:49:29.525Z,157320.09
2023-02-25T01:52:07.316Z,157313.47
2023-02-25T01:54:36.008Z,157317.47
2023-02-25T01:57:07.105Z,157318.78
2023-02-25T01:59:34.806Z,157316.16
2023-02-25T02:02:03.658Z,157324.09
2023-02-25T02:04:31.401Z,157294.91
2023-02-25T02:06:59.406Z,157298.88
2023-02-25T02:09:28.886Z,157298.88
2023-02-25T02:11:56.917Z,157301.56
2023-02-25T02:14:29.406Z,157304.19
2023-02-25T02:17:15.371Z,157297.56
2023-02-25T02:19:48.177Z,157290.91
2023-02-25T02:22:24.185Z,157294.91
2023-02-25T02:25:29.087Z,157301.56
2023-02-25T02:28:34.088Z,157313.47
2023-02-25T02:31:07.522Z,157318.78
2023-02-25T02:33:40.925Z,157325.41
2023-02-25T02:36:08.672Z,157329.41
2023-02-25T02:38:49.390Z,157337.38
2023-02-25T02:41:34.553Z,157346.66
2023-02-25T02:44:07.405Z,157344.00
2023-02-25T02:46:39.222Z,157347.97
2023-02-25T02:49:11.799Z,157353.28
2023-02-25T02:51:44.008Z,157347.97
2023-02-25T02:54:12.542Z,157344.00
2023-02-25T02:56:42.760Z,157334.69
2023-02-25T02:59:30.707Z,157318.78
2023-02-25T03:02:03.895Z,157301.56
2023-02-25T03:04:34.330Z,157297.56
2023-02-25T03:07:08.553Z,157281.63
2023-02-25T03:09:42.013Z,157288.28
2023-02-25T03:12:09.670Z,157278.94
2023-02-25T03:14:37.979Z,157273.69
2023-02-25T03:17:10.413Z,157275.00
2023-02-25T03:19:40.650Z,157259.03
2023-02-25T03:22:28.004Z,157252.47
2023-02-25T03:25:25.017Z,157231.19
2023-02-25T03:27:55.971Z,157209.94
2023-02-25T03:30:28.828Z,157223.22
2023-02-25T03:33:18.545Z,157225.91
2023-02-25T03:35:47.621Z,157221.91
2023-02-25T03:38:20.209Z,157223.22
2023-02-25T03:40:48.891Z,157232.53
2023-02-25T03:43:18.620Z,157239.19
2023-02-25T03:45:46.459Z,157225.91
2023-02-25T03:48:15.480Z,157195.38
2023-02-25T03:50:54.810Z,157195.38
2023-02-25T03:53:22.523Z,157182.09
2023-02-25T03:56:11.259Z,157166.19
2023-02-25T03:58:41.720Z,157121.09
2023-02-25T04:01:17.303Z,157110.47
2023-02-25T04:03:44.814Z,157107.84
2023-02-25T04:06:14.568Z,157099.91
2023-02-25T04:08:42.295Z,157103.84
2023-02-25T04:11:09.626Z,157082.63
2023-02-25T04:13:38.108Z,157089.25
2023-02-25T04:16:06.116Z,157095.88
2023-02-25T04:18:34.811Z,157102.53
2023-02-25T04:21:06.635Z,157102.53
2023-02-25T04:23:34.895Z,157099.91
2023-02-25T04:26:02.955Z,157095.88
2023-02-25T04:28:30.350Z,157080.00
2023-02-25T04:30:57.923Z,157077.34
2023-02-25T04:33:25.158Z,157064.09
2023-02-25T04:35:52.487Z,157050.81
2023-02-25T04:38:19.682Z,157056.09
2023-02-25T04:40:46.997Z,157032.25
2023-02-25T04:43:14.215Z,157041.50
2023-02-25T04:45:41.640Z,157034.88
2023-02-25T04:48:08.975Z,157032.25
2023-02-25T04:50:36.388Z,157037.56
2023-02-25T04:53:03.891Z,157009.72
2023-02-25T04:55:31.214Z,157017.66
2023-02-25T04:57:58.461Z,157012.34
2023-02-25T05:00:27.088Z,156999.09
2023-02-25T05:02:54.318Z,157001.75
2023-02-25T05:05:21.786Z,156988.50
2023-02-25T05:07:49.187Z,156987.19
2023-02-25T05:10:16.668Z,156971.25
2023-02-25T05:12:44.024Z,156988.50
2023-02-25T05:15:11.963Z,156984.50
2023-02-25T05:17:39.344Z,156991.13
2023-02-25T05:20:12.032Z,156981.88
2023-02-25T05:22:40.240Z,156992.44
2023-02-25T05:25:08.514Z,156992.44
2023-02-25T05:27:35.648Z,156996.44
2023-02-25T05:30:03.137Z,156984.50
2023-02-25T05:32:31.907Z,156995.13
2023-02-25T05:34:59.445Z,156997.75
2023-02-25T05:37:26.720Z,156995.13
2023-02-25T05:39:54.047Z,156987.19
2023-02-25T05:42:21.235Z,156993.81
2023-02-25T05:44:48.648Z,156988.50
2023-02-25T05:47:15.926Z,156997.75
2023-02-25T05:49:43.621Z,156997.75
2023-02-25T05:52:11.469Z,157008.41
2023-02-25T05:54:38.897Z,157013.66
2023-02-25T05:57:06.497Z,157024.28
2023-02-25T05:59:33.862Z,157028.28
2023-02-25T06:02:01.252Z,157024.28
2023-02-25T06:04:28.643Z,157022.97
2023-02-25T06:06:56.285Z,157022.97
2023-02-25T06:09:23.630Z,157033.56
2023-02-25T06:11:50.810Z,157029.59
2023-02-25T06:14:18.201Z,157024.28
2023-02-25T06:16:45.449Z,157033.56
2023-02-25T06:19:13.203Z,157036.25
2023-02-25T06:21:40.640Z,157022.97
2023-02-25T06:24:08.232Z,157030.94
2023-02-25T06:26:35.554Z,157040.19
2023-02-25T06:29:02.901Z,157042.88
2023-02-25T06:31:30.047Z,157054.78
2023-02-25T06:33:57.343Z,157053.47
2023-02-25T06:36:24.748Z,157061.41
2023-02-25T06:38:52.260Z,157048.16
2023-02-25T06:41:21.222Z,157056.09
2023-02-25T06:43:52.606Z,157053.47
2023-02-25T06:46:22.532Z,157060.09
2023-02-25T06:48:50.125Z,157072.03
2023-02-25T06:51:17.395Z,157077.34
2023-02-25T06:53:45.618Z,157074.69
2023-02-25T06:56:14.481Z,157081.31
2023-02-25T06:58:42.484Z,157072.03
2023-02-25T07:01:13.599Z,157076.00
2023-02-25T07:03:43.609Z,157074.69
2023-02-25T07:06:11.017Z,157061.41
2023-02-25T07:08:38.381Z,157082.63
2023-02-25T07:11:17.527Z,157076.00
2023-02-25T07:13:46.702Z,157082.63
2023-02-25T07:16:15.407Z,157082.63
2023-02-25T07:18:43.453Z,157101.22
2023-02-25T07:21:14.669Z,157098.56
2023-02-25T07:23:42.668Z,157098.56
2023-02-25T07:26:12.267Z,157090.56
2023-02-25T07:28:39.900Z,157106.53
2023-02-25T07:31:22.160Z,157109.16
2023-02-25T07:33:50.844Z,157114.47
2023-02-25T07:36:18.359Z,157122.44
2023-02-25T07:38:46.937Z,157093.25
2023-02-25T07:41:17.181Z,157118.44
2023-02-25T07:43:44.754Z,157109.16
2023-02-25T07:46:13.459Z,157122.44
2023-02-25T07:48:41.165Z,157130.38
2023-02-25T07:51:12.214Z,157130.38
2023-02-25T07:53:40.109Z,157126.44
2023-02-25T07:56:08.436Z,157143.66
2023-02-25T07:58:36.425Z,157167.50
2023-02-25T08:01:11.058Z,157152.91
2023-02-25T08:03:38.844Z,157162.25
2023-02-25T08:06:08.782Z,157167.50
2023-02-25T08:08:37.091Z,157176.81
2023-02-25T08:11:08.599Z,157188.72
2023-02-25T08:13:36.463Z,157190.09
2023-02-25T08:16:12.446Z,157194.03
2023-02-25T08:18:43.015Z,157207.31
2023-02-25T08:21:11.517Z,157209.94
2023-02-25T08:23:39.385Z,157209.94
2023-02-25T08:26:07.375Z,157227.22
2023-02-25T08:28:37.133Z,157220.59
2023-02-25T08:31:06.725Z,157223.22
2023-02-25T08:33:34.352Z,157229.84
2023-02-25T08:36:16.166Z,157236.50
2023-02-25T08:38:44.691Z,157232.53
2023-02-25T08:41:12.405Z,157237.81
2023-02-25T08:43:41.061Z,157255.09
2023-02-25T08:46:08.895Z,157256.41
2023-02-25T08:48:37.216Z,157265.69
2023-02-25T08:51:08.678Z,157265.69
2023-02-25T08:53:40.603Z,157284.28
2023-02-25T08:56:09.927Z,157278.94
2023-02-25T08:58:39.574Z,157265.69
2023-02-25T09:01:14.695Z,157252.47
2023-02-25T09:03:57.976Z,157220.59
2023-02-25T09:06:27.996Z,157215.28
2023-02-25T09:08:56.285Z,157237.81
2023-02-25T09:11:24.418Z,157260.41
2023-02-25T09:13:53.075Z,157280.31
2023-02-25T09:16:20.799Z,157302.88
2023-02-25T09:18:48.992Z,157309.50
2023-02-25T09:21:16.411Z,157344.00
2023-02-25T09:23:43.950Z,157363.88
2023-02-25T09:26:11.243Z,157361.25
2023-02-25T09:28:39.004Z,157370.53
2023-02-25T09:31:06.205Z,157341.31
2023-02-25T09:33:35.947Z,157329.41
2023-02-25T09:36:14.986Z,157328.06
2023-02-25T09:38:44.421Z,157354.59
2023-02-25T09:41:55.597Z,157386.47
2023-02-25T09:44:32.927Z,157403.72
2023-02-25T09:47:12.597Z,157370.53
2023-02-25T09:49:48.290Z,157305.50
2023-02-25T09:52:16.989Z,157302.88
2023-02-25T09:54:46.537Z,157278.94
2023-02-25T09:57:22.682Z,157264.34
2023-02-25T09:59:54.725Z,157256.41
2023-02-25T10:02:40.417Z,157249.78
2023-02-25T10:05:24.760Z,157271.00
2023-02-25T10:08:09.190Z,157292.22
2023-02-25T10:10:59.005Z,157316.16
2023-02-25T10:13:51.078Z,157370.53
2023-02-25T10:16:37.020Z,157439.56
2023-02-25T10:19:19.723Z,157488.69
2023-02-25T10:22:14.675Z,157527.22
2023-02-25T10:24:45.789Z,157569.72
2023-02-25T10:27:33.848Z,157577.66
2023-02-25T10:30:12.478Z,157575.03
2023-02-25T10:32:42.413Z,157573.66
2023-02-25T10:35:17.675Z,157561.75
2023-02-25T10:37:45.537Z,157581.66
2023-02-25T10:40:18.772Z,157593.59
2023-02-25T10:42:51.710Z,157609.50
2023-02-25T10:45:22.620Z,157626.81
2023-02-25T10:47:56.744Z,157600.22
2023-02-25T10:50:42.845Z,157499.31
2023-02-25T10:53:17.203Z,157375.84
2023-02-25T10:55:44.328Z,157251.09
2023-02-25T10:58:41.561Z,157182.09
2023-02-25T11:01:15.008Z,157102.53
2023-02-25T11:04:02.840Z,157069.34
2023-02-25T11:06:38.049Z,157026.94
2023-02-25T11:09:29.782Z,157008.41
2023-02-25T11:12:01.186Z,156989.81
2023-02-25T11:14:30.519Z,156968.59
2023-02-25T11:17:03.715Z,156980.56
2023-02-25T11:19:33.414Z,157003.09
2023-02-25T11:22:10.718Z,157038.88
2023-02-25T11:24:39.273Z,157077.34
2023-02-25T11:27:07.810Z,157109.16
2023-02-25T11:29:40.202Z,157146.28
2023-02-25T11:32:10.860Z,157178.13
2023-02-25T11:34:48.235Z,157216.59
2023-02-25T11:37:49.345Z,157252.47
2023-02-25T11:40:44.222Z,157296.22
2023-02-25T11:43:18.046Z,157332.06
2023-02-25T11:46:01.487Z,157374.53
2023-02-25T11:48:47.483Z,157397.09
2023-02-25T11:51:17.574Z,157442.25
2023-02-25T11:54:15.853Z,157488.69
2023-02-25T11:56:48.760Z,157499.31
2023-02-25T12:00:00.904Z,157539.13
2023-02-25T12:02:43.907Z,157547.13
2023-02-25T12:05:16.936Z,157553.78
2023-02-25T12:08:16.709Z,157584.31
2023-02-25T12:11:23.314Z,157580.31
2023-02-25T12:14:25.924Z,157568.38
2023-02-25T12:17:26.147Z,157608.19
2023-02-25T12:20:32.194Z,157622.81
2023-02-25T12:23:14.255Z,157652.06
2023-02-25T12:25:47.546Z,157636.09
2023-02-25T12:28:52.114Z,157666.69
2023-02-25T12:31:32.781Z,157652.06
2023-02-25T12:34:35.135Z,157578.97
2023-02-25T12:37:40.042Z,157448.88
2023-02-25T12:40:24.313Z,157435.59
2023-02-25T12:43:10.656Z,157432.91
2023-02-25T12:46:09.589Z,157370.53
2023-02-25T12:48:55.975Z,157345.34
2023-02-25T12:52:01.245Z,157326.75
2023-02-25T12:54:28.586Z,157290.91
2023-02-25T12:57:34.763Z,157224.59
2023-02-25T13:00:26.892Z,157178.13
2023-02-25T13:03:21.466Z,157176.81
2023-02-25T13:06:01.709Z,157203.38
2023-02-25T13:08:35.795Z,157233.88
2023-02-25T13:11:20.779Z,157273.69
2023-02-25T13:14:13.089Z,157281.63
2023-02-25T13:17:18.934Z,157324.09
2023-02-25T13:20:00.489Z,157366.56
2023-02-25T13:22:39.788Z,157398.41
2023-02-25T13:25:31.516Z,157409.03
2023-02-25T13:28:22.104Z,157430.28
2023-02-25T13:31:17.586Z,157462.13
2023-02-25T13:33:46.234Z,157459.47
2023-02-25T13:36:34.688Z,157472.75
2023-02-25T13:39:39.389Z,157472.75
2023-02-25T13:42:41.787Z,157478.09
2023-02-25T13:45:30.759Z,157482.03
2023-02-25T13:48:19.605Z,157470.13
2023-02-25T13:51:04.382Z,157484.72
2023-02-25T13:54:13.355Z,157483.34
2023-02-25T13:56:57.393Z,157548.47
2023-02-25T13:59:50.419Z,157541.81
2023-02-25T14:02:26.162Z,157549.78
2023-02-25T14:05:34.940Z,157544.44
2023-02-25T14:08:16.747Z,157536.50
2023-02-25T14:11:21.598Z,157517.88
2023-02-25T14:14:14.607Z,157528.53
2023-02-25T14:17:28.058Z,157532.47
2023-02-25T14:20:21.077Z,157549.78
2023-02-25T14:22:59.519Z,157552.41
2023-02-25T14:26:08.335Z,157548.47
2023-02-25T14:28:41.135Z,157525.91
2023-02-25T14:31:47.425Z,157536.50
2023-02-25T14:34:46.104Z,157535.16
2023-02-25T14:37:15.606Z,157504.66
2023-02-25T14:40:05.353Z,157483.34
2023-02-25T14:42:36.335Z,157476.75
2023-02-25T14:45:09.550Z,157459.47
2023-02-25T14:48:01.672Z,157436.91
2023-02-25T14:50:32.327Z,157406.34
2023-02-25T14:53:02.695Z,157357.25
2023-02-25T14:55:37.263Z,157264.34
2023-02-25T14:58:37.881Z,157199.38
2023-02-25T15:01:42.300Z,157170.19
2023-02-25T15:04:15.811Z,157156.91
2023-02-25T15:07:09.155Z,157148.97
2023-02-25T15:09:55.147Z,157155.59
2023-02-25T15:12:30.979Z,157156.91
2023-02-25T15:15:35.845Z,157163.56
2023-02-25T15:18:24.906Z,157175.50
2023-02-25T15:20:52.741Z,157179.47
2023-02-25T15:23:21.044Z,157190.09
2023-02-25T15:25:56.825Z,157194.03
2023-02-25T15:28:30.056Z,157223.22
2023-02-25T15:31:01.089Z,157227.22
2023-02-25T15:33:42.125Z,157232.53
2023-02-25T15:36:15.371Z,157223.22
2023-02-25T15:38:44.026Z,157239.19
2023-02-25T15:41:29.442Z,157239.19
2023-02-25T15:44:09.042Z,157257.72
2023-02-25T15:46:36.847Z,157252.47
2023-02-25T15:49:25.590Z,157259.03
2023-02-25T15:51:54.333Z,157241.81
2023-02-25T15:54:33.691Z,157212.63
2023-02-25T15:57:05.014Z,157170.19
2023-02-25T15:59:53.002Z,157065.41
2023-02-25T16:02:29.230Z,157040.19
2023-02-25T16:05:09.949Z,157018.97
2023-02-25T16:07:50.536Z,156991.13
2023-02-25T16:10:28.539Z,156954.03
2023-02-25T16:12:57.806Z,156976.56
2023-02-25T16:15:33.038Z,156973.91
2023-02-25T16:18:14.350Z,156988.50
2023-02-25T16:20:48.425Z,156984.50
2023-02-25T16:23:16.319Z,156996.44
2023-02-25T16:25:52.209Z,156993.81
2023-02-25T16:28:34.782Z,156997.75
2023-02-25T16:31:11.966Z,157009.72
2023-02-25T16:33:57.009Z,157020.28
2023-02-25T16:36:37.753Z,157033.56
2023-02-25T16:39:07.270Z,157041.50
2023-02-25T16:41:38.544Z,157053.47
2023-02-25T16:44:08.027Z,157060.09
2023-02-25T16:46:37.928Z,157057.47
2023-02-25T16:49:10.674Z,157077.34
2023-02-25T16:51:45.539Z,157066.72
2023-02-25T16:54:17.810Z,157072.03
2023-02-25T16:56:50.262Z,157076.00
2023-02-25T16:59:21.865Z,157098.56
2023-02-25T17:01:55.775Z,157086.63
2023-02-25T17:04:25.646Z,157086.63
2023-02-25T17:07:22.330Z,157090.56
2023-02-25T17:09:51.165Z,157099.91
2023-02-25T17:12:45.955Z,157103.84
2023-02-25T17:15:17.364Z,157098.56
2023-02-25T17:17:45.098Z,157097.22
2023-02-25T17:20:23.437Z,157102.53
2023-02-25T17:22:51.944Z,157117.09
2023-02-25T17:25:21.111Z,157109.16
2023-02-25T17:27:50.134Z,157098.56
2023-02-25T17:30:38.262Z,157109.16
2023-02-25T17:33:06.011Z,157091.94
2023-02-25T17:35:35.279Z,157073.34
2023-02-25T17:38:02.749Z,157064.09
2023-02-25T17:40:30.672Z,156993.81
2023-02-25T17:43:21.112Z,156914.25
2023-02-25T17:45:54.120Z,156882.47
2023-02-25T17:48:27.274Z,156863.88
2023-02-25T17:50:58.792Z,156850.63
2023-02-25T17:53:49.210Z,156846.69
2023-02-25T17:56:22.998Z,156844.00
2023-02-25T17:59:13.306Z,156844.00
2023-02-25T18:01:48.283Z,156851.94
2023-02-25T18:04:34.869Z,156866.53
2023-02-25T18:07:24.033Z,156871.84
2023-02-25T18:09:51.377Z,156886.41
2023-02-25T18:12:38.713Z,156903.66
2023-02-25T18:15:16.650Z,156906.28
2023-02-25T18:17:49.978Z,156920.88
2023-02-25T18:20:42.396Z,156920.88
2023-02-25T18:23:30.421Z,156934.13
2023-02-25T18:26:24.385Z,156946.09
2023-02-25T18:28:57.669Z,156967.28
2023-02-25T18:31:25.172Z,156975.22
2023-02-25T18:33:53.174Z,156984.50
2023-02-25T18:36:26.285Z,156991.13
2023-02-25T18:38:56.323Z,157005.72
2023-02-25T18:41:24.139Z,157011.03
2023-02-25T18:43:54.750Z,157025.59
2023-02-25T18:46:22.980Z,157034.88
2023-02-25T18:48:50.820Z,157046.81
2023-02-25T18:51:18.243Z,157058.78
2023-02-25T18:53:46.924Z,157064.09
2023-02-25T18:56:17.423Z,157069.34
2023-02-25T18:58:45.621Z,157058.78
2023-02-25T19:01:23.660Z,157066.72
2023-02-25T19:03:51.484Z,157082.63
2023-02-25T19:06:18.628Z,157082.63
2023-02-25T19:08:46.254Z,157087.94
2023-02-25T19:11:23.613Z,157102.53
2023-02-25T19:13:51.957Z,157107.84
2023-02-25T19:16:19.493Z,157102.53
2023-02-25T19:18:50.427Z,157098.56
2023-02-25T19:21:20.258Z,157082.63
2023-02-25T19:23:51.749Z,157085.31
2023-02-25T19:26:19.339Z,157082.63
2023-02-25T19:28:47.000Z,157073.34
2023-02-25T19:31:14.819Z,157072.03
2023-02-25T19:33:45.394Z,157072.03
2023-02-25T19:36:14.584Z,157069.34
2023-02-25T19:38:42.198Z,157061.41
2023-02-25T19:41:13.384Z,157060.09
2023-02-25T19:43:41.021Z,157033.56
2023-02-25T19:46:09.678Z,157040.19
2023-02-25T19:48:37.222Z,157038.88
2023-02-25T19:51:08.568Z,157042.88
2023-02-25T19:53:36.513Z,157034.88
2023-02-25T19:56:04.064Z,157036.25
2023-02-25T19:58:32.214Z,157029.59
2023-02-25T20:01:05.311Z,157028.28
2023-02-25T20:03:33.272Z,157038.88
2023-02-25T20:06:22.306Z,157028.28
2023-02-25T20:08:52.674Z,157034.88
2023-02-25T20:11:20.464Z,157038.88
2023-02-25T20:13:48.242Z,157037.56
2023-02-25T20:16:15.696Z,157021.66
2023-02-25T20:18:43.829Z,157011.03
2023-02-25T20:21:10.983Z,157004.41
2023-02-25T20:23:39.831Z,157025.59
2023-02-25T20:26:10.341Z,157011.03
2023-02-25T20:28:38.351Z,157016.34
2023-02-25T20:31:10.926Z,157005.72
2023-02-25T20:33:38.839Z,156995.13
2023-02-25T20:36:27.953Z,156991.13
2023-02-25T20:39:12.867Z,156979.19
2023-02-25T20:41:41.071Z,156976.56
2023-02-25T20:44:09.122Z,156973.91
2023-02-25T20:46:37.157Z,156963.28
2023-02-25T20:49:06.386Z,156951.41
2023-02-25T20:51:34.824Z,156946.09
2023-02-25T20:54:04.028Z,156947.41
2023-02-25T20:56:34.388Z,156942.09
2023-02-25T20:59:02.279Z,156930.13
2023-02-25T21:01:29.497Z,156936.78
2023-02-25T21:03:57.177Z,156928.81
2023-02-25T21:06:26.590Z,156931.50
2023-02-25T21:08:55.323Z,156926.19
2023-02-25T21:11:24.550Z,156912.94
2023-02-25T21:13:53.036Z,156916.94
2023-02-25T21:16:22.188Z,156918.25
2023-02-25T21:18:51.421Z,156897.03
2023-02-25T21:21:21.030Z,156902.34
2023-02-25T21:23:51.887Z,156915.56
2023-02-25T21:26:19.339Z,156904.97
2023-02-25T21:28:47.407Z,156902.34
2023-02-25T21:31:16.139Z,156897.03
2023-02-25T21:33:43.984Z,156886.41
2023-02-25T21:36:11.675Z,156878.47
2023-02-25T21:38:39.966Z,156862.56
2023-02-25T21:41:13.666Z,156870.53
2023-02-25T21:43:42.331Z,156863.88
2023-02-25T21:46:13.625Z,156851.94
2023-02-25T21:48:42.475Z,156849.31
2023-02-25T21:51:18.564Z,156846.69
2023-02-25T21:53:46.561Z,156850.63
2023-02-25T21:56:16.212Z,156851.94
2023-02-25T21:58:44.742Z,156842.69
2023-02-25T22:01:24.723Z,156793.66
2023-02-25T22:03:52.611Z,156844.00
2023-02-25T22:06:24.313Z,156854.63
2023-02-25T22:08:53.879Z,156858.56
2023-02-25T22:11:29.667Z,156840.06
2023-02-25T22:14:02.022Z,156840.06
2023-02-25T22:16:30.041Z,156822.78
2023-02-25T22:18:58.217Z,156808.22
2023-02-25T22:21:29.900Z,156804.22
2023-02-25T22:23:59.863Z,156797.66
2023-02-25T22:26:29.734Z,156793.66
2023-02-25T22:29:00.128Z,156773.78
2023-02-25T22:31:28.593Z,156785.72
2023-02-25T22:33:57.436Z,156772.47
2023-02-25T22:36:25.493Z,156748.63
2023-02-25T22:38:54.206Z,156732.69
2023-02-25T22:41:29.036Z,156735.38
2023-02-25T22:44:00.574Z,156726.06
2023-02-25T22:46:38.597Z,156726.06
2023-02-25T22:49:07.908Z,156724.75
2023-02-25T22:51:45.574Z,156732.69
2023-02-25T22:54:15.343Z,156727.38
2023-02-25T22:56:43.308Z,156719.44
2023-02-25T22:59:12.123Z,156714.19
2023-02-25T23:01:40.491Z,156715.50
2023-02-25T23:04:08.281Z,156719.44
2023-02-25T23:06:43.594Z,156714.19
2023-02-25T23:09:15.439Z,156712.81
2023-02-25T23:11:44.993Z,156708.88
2023-02-25T23:14:13.408Z,156704.88
2023-02-25T23:16:43.463Z,156708.88
2023-02-25T23:19:17.330Z,156696.94
2023-02-25T23:21:45.681Z,156689.00
2023-02-25T23:24:16.616Z,156669.13
2023-02-25T23:26:45.467Z,156662.50
2023-02-25T23:29:13.573Z,156632.03
2023-02-25T23:31:47.245Z,156651.91
2023-02-25T23:34:19.908Z,156642.63
2023-02-25T23:36:47.741Z,156625.41
2023-02-25T23:39:16.216Z,156618.78
2023-02-25T23:41:44.483Z,156620.13
2023-02-25T23:44:13.335Z,156617.47
2023-02-25T23:46:43.254Z,156613.50
2023-02-25T23:49:15.551Z,156602.91
2023-02-25T23:51:47.440Z,156616.16
2023-02-25T23:54:18.252Z,156567.16
2023-02-25T23:56:45.831Z,156617.47
2023-02-25T23:59:13.707Z,156625.41
